createdAt,value
2023-03-12T00:02:50.837Z,97610.75
2023-03-12T00:05:59.153Z,97598.34
2023-03-12T00:09:09.588Z,97628.63
2023-03-12T00:12:16.173Z,97613.44
2023-03-12T00:15:22.513Z,97621.94
2023-03-12T00:18:32.041Z,97626.88
2023-03-12T00:21:37.845Z,97615.56
2023-03-12T00:24:44.568Z,97620.66
2023-03-12T00:27:50.587Z,97617.16
2023-03-12T00:30:58.624Z,97614.78
2023-03-12T00:34:07.165Z,97628.00
2023-03-12T00:37:14.221Z,97640.13
2023-03-12T00:40:20.438Z,97634.63
2023-03-12T00:43:26.884Z,97640.13
2023-03-12T00:46:32.902Z,97643.78
2023-03-12T00:49:43.319Z,97644.63
2023-03-12T00:52:48.867Z,97642.38
2023-03-12T00:55:55.281Z,97654.06
2023-03-12T00:59:01.221Z,97650.94
2023-03-12T01:02:36.336Z,97658.16
2023-03-12T01:05:44.771Z,97649.97
2023-03-12T01:08:51.255Z,97651.25
2023-03-12T01:11:57.091Z,97643.28
2023-03-12T01:15:03.835Z,97644.44
2023-03-12T01:18:09.739Z,97639.91
2023-03-12T01:21:19.543Z,97633.91
2023-03-12T01:24:25.609Z,97625.19
2023-03-12T01:27:32.478Z,97632.59
2023-03-12T01:30:38.544Z,97620.44
2023-03-12T01:33:45.331Z,97608.31
2023-03-12T01:36:53.743Z,97620.81
2023-03-12T01:40:00.444Z,97624.41
2023-03-12T01:43:32.841Z,97625.19
2023-03-12T01:46:43.369Z,97634.13
2023-03-12T01:49:56.362Z,97623.59
2023-03-12T01:53:06.304Z,97632.97
2023-03-12T01:56:13.629Z,97645.00
2023-03-12T01:59:28.935Z,97636.75
2023-03-12T02:02:37.053Z,97642.66
2023-03-12T02:05:54.991Z,97643.31
2023-03-12T02:09:09.091Z,97646.25
2023-03-12T02:12:16.391Z,97659.94
2023-03-12T02:15:23.743Z,97653.25
2023-03-12T02:18:31.321Z,97649.97
2023-03-12T02:21:38.724Z,97659.56
2023-03-12T02:24:57.227Z,97651.34
2023-03-12T02:28:12.439Z,97669.97
2023-03-12T02:31:27.443Z,97670.03
2023-03-12T02:34:33.466Z,97674.28
2023-03-12T02:37:50.045Z,97674.19
2023-03-12T02:41:01.648Z,97681.75
2023-03-12T02:44:17.972Z,97669.25
2023-03-12T02:47:26.530Z,97684.50
2023-03-12T02:50:33.443Z,97690.47
2023-03-12T02:53:40.246Z,97689.94
2023-03-12T02:56:46.600Z,97686.44
2023-03-12T02:59:56.063Z,97688.44
2023-03-12T03:03:02.330Z,97696.84
2023-03-12T03:06:09.316Z,97706.63
2023-03-12T03:09:15.046Z,97721.22
2023-03-12T03:12:23.269Z,97706.56
2023-03-12T03:15:32.169Z,97716.03
2023-03-12T03:18:39.216Z,97717.03
2023-03-12T03:21:45.122Z,97729.06
2023-03-12T03:24:52.628Z,97732.84
2023-03-12T03:27:59.109Z,97721.44
2023-03-12T03:31:08.734Z,97744.44
2023-03-12T03:34:16.496Z,97726.53
2023-03-12T03:37:23.542Z,97739.06
2023-03-12T03:40:30.061Z,97744.34
2023-03-12T03:43:37.143Z,97738.34
2023-03-12T03:46:47.156Z,97746.69
2023-03-12T03:49:53.877Z,97750.16
2023-03-12T03:52:59.854Z,97762.16
2023-03-12T03:56:11.035Z,97758.44
2023-03-12T03:59:20.091Z,97760.06
2023-03-12T04:02:31.844Z,97535.06
2023-03-12T04:05:37.879Z,97748.38
2023-03-12T04:08:44.437Z,97756.03
2023-03-12T04:11:53.357Z,97757.00
2023-03-12T04:15:00.515Z,97753.47
2023-03-12T04:18:09.193Z,97755.31
2023-03-12T04:21:17.914Z,97751.84
2023-03-12T04:24:24.615Z,97758.63
2023-03-12T04:27:31.649Z,97748.38
2023-03-12T04:30:38.605Z,97768.94
2023-03-12T04:33:48.802Z,97769.75
2023-03-12T04:36:55.362Z,97767.19
2023-03-12T04:40:02.167Z,97766.97
2023-03-12T04:43:08.492Z,97762.22
2023-03-12T04:46:15.216Z,97762.16
2023-03-12T04:49:25.132Z,97776.88
2023-03-12T04:52:32.491Z,97776.88
2023-03-12T04:55:38.202Z,97777.69
2023-03-12T04:58:45.072Z,97774.16
2023-03-12T05:01:51.732Z,97779.31
2023-03-12T05:05:05.844Z,97787.00
2023-03-12T05:08:11.697Z,97786.16
2023-03-12T05:11:19.468Z,97789.63
2023-03-12T05:14:25.250Z,97792.09
2023-03-12T05:17:32.800Z,97797.94
2023-03-12T05:20:41.376Z,97800.38
2023-03-12T05:23:49.247Z,97804.56
2023-03-12T05:26:55.496Z,97810.53
2023-03-12T05:30:04.904Z,97812.03
2023-03-12T05:33:10.771Z,97813.50
2023-03-12T05:36:20.754Z,97821.25
2023-03-12T05:39:29.136Z,97772.00
2023-03-12T05:42:39.953Z,97830.22
2023-03-12T05:45:47.663Z,97830.66
2023-03-12T05:48:55.223Z,97820.63
2023-03-12T05:52:04.225Z,97837.59
2023-03-12T05:55:12.590Z,97840.84
2023-03-12T05:58:19.278Z,97836.41
2023-03-12T06:01:30.124Z,97837.38
2023-03-12T06:04:37.840Z,97849.09
2023-03-12T06:07:48.059Z,97844.63
2023-03-12T06:10:55.195Z,97852.44
2023-03-12T06:14:02.953Z,97856.59
2023-03-12T06:17:09.457Z,97860.78
2023-03-12T06:20:16.953Z,97858.97
2023-03-12T06:23:25.740Z,97863.22
2023-03-12T06:26:32.887Z,97868.94
2023-03-12T06:29:38.831Z,97865.41
2023-03-12T06:32:45.542Z,97875.53
2023-03-12T06:35:51.494Z,97882.97
2023-03-12T06:39:01.239Z,97885.97
2023-03-12T06:42:07.094Z,97877.19
2023-03-12T06:45:14.732Z,97870.69
2023-03-12T06:48:20.912Z,97892.53
2023-03-12T06:51:27.595Z,97888.94
2023-03-12T06:54:36.371Z,97892.22
2023-03-12T06:57:42.982Z,97886.88
2023-03-12T07:00:48.972Z,97854.81
2023-03-12T07:03:55.897Z,97896.66
2023-03-12T07:07:01.499Z,97889.69
2023-03-12T07:10:14.365Z,97899.00
2023-03-12T07:13:20.625Z,97890.16
2023-03-12T07:16:27.555Z,97877.38
2023-03-12T07:19:34.198Z,97888.25
2023-03-12T07:22:40.981Z,97889.03
2023-03-12T07:25:50.453Z,97897.72
2023-03-12T07:28:57.033Z,97892.41
2023-03-12T07:32:02.996Z,97896.72
2023-03-12T07:35:10.863Z,97699.91
2023-03-12T07:38:17.814Z,97906.78
2023-03-12T07:41:27.531Z,97700.69
2023-03-12T07:44:33.927Z,97885.28
2023-03-12T07:47:40.681Z,97881.78
2023-03-12T07:50:46.731Z,97897.53
2023-03-12T07:53:53.697Z,97897.22
2023-03-12T07:57:02.331Z,97899.91
2023-03-12T08:00:12.654Z,97901.22
2023-03-12T08:03:18.929Z,97890.84
2023-03-12T08:06:26.038Z,97898.09
2023-03-12T08:09:33.022Z,97907.91
2023-03-12T08:12:43.182Z,97917.34
2023-03-12T08:15:49.727Z,97901.25
2023-03-12T08:18:56.781Z,97916.13
2023-03-12T08:22:03.056Z,97895.13
2023-03-12T08:25:11.728Z,97913.47
2023-03-12T08:28:22.229Z,97927.53
2023-03-12T08:31:29.621Z,97925.44
2023-03-12T08:34:36.179Z,97932.81
2023-03-12T08:37:42.921Z,97924.72
2023-03-12T08:40:48.770Z,97929.41
2023-03-12T08:43:58.173Z,97933.53
2023-03-12T08:47:04.321Z,97916.13
2023-03-12T08:50:13.653Z,97919.75
2023-03-12T08:53:19.867Z,97933.75
2023-03-12T08:56:26.607Z,97929.41
2023-03-12T08:59:35.367Z,97933.88
2023-03-12T09:02:42.406Z,97935.56
2023-03-12T09:05:49.152Z,97933.38
2023-03-12T09:08:56.184Z,97936.13
2023-03-12T09:12:02.152Z,97925.69
2023-03-12T09:15:13.294Z,97936.66
2023-03-12T09:18:20.534Z,97921.22
2023-03-12T09:21:27.639Z,97921.91
2023-03-12T09:24:33.628Z,97919.97
2023-03-12T09:27:41.737Z,97924.34
2023-03-12T09:30:51.773Z,97936.59
2023-03-12T09:33:58.926Z,97933.66
2023-03-12T09:37:04.942Z,97934.81
2023-03-12T09:40:20.244Z,97933.22
2023-03-12T09:43:35.181Z,97931.25
2023-03-12T09:46:53.987Z,97924.97
2023-03-12T09:50:08.934Z,97930.16
2023-03-12T09:53:30.537Z,97913.88
2023-03-12T09:56:37.931Z,97930.84
2023-03-12T09:59:44.862Z,97925.19
2023-03-12T10:03:29.760Z,97927.00
2023-03-12T10:06:47.351Z,97925.56
2023-03-12T10:10:33.383Z,97926.63
2023-03-12T10:14:13.102Z,97932.94
2023-03-12T10:17:50.072Z,97949.47
2023-03-12T10:21:17.438Z,97941.75
2023-03-12T10:24:45.790Z,97934.00
2023-03-12T10:27:53.482Z,97928.94
2023-03-12T10:31:06.649Z,97917.81
2023-03-12T10:34:24.786Z,97931.88
2023-03-12T10:37:43.208Z,97939.19
2023-03-12T10:40:51.593Z,97925.94
2023-03-12T10:44:02.325Z,97926.22
2023-03-12T10:47:26.926Z,97878.69
2023-03-12T10:50:35.772Z,97936.81
2023-03-12T10:53:48.305Z,97927.50
2023-03-12T10:56:54.955Z,97939.94
2023-03-12T11:00:13.244Z,97925.34
2023-03-12T11:03:26.187Z,97940.56
2023-03-12T11:06:34.290Z,97929.69
2023-03-12T11:09:42.674Z,97936.31
2023-03-12T11:13:02.893Z,97936.41
2023-03-12T11:16:32.294Z,97948.50
2023-03-12T11:19:40.616Z,97937.16
2023-03-12T11:22:46.259Z,97928.75
2023-03-12T11:26:04.036Z,97931.81
2023-03-12T11:29:25.953Z,97941.50
2023-03-12T11:32:39.390Z,97906.56
2023-03-12T11:36:10.523Z,97940.47
2023-03-12T11:39:34.822Z,97941.72
2023-03-12T11:43:24.073Z,97932.50
2023-03-12T11:46:59.763Z,97934.66
2023-03-12T11:50:29.711Z,97933.22
2023-03-12T11:53:59.973Z,97911.47
2023-03-12T11:57:19.420Z,97927.97
2023-03-12T12:00:42.687Z,97927.69
2023-03-12T12:04:17.774Z,97955.53
2023-03-12T12:07:47.711Z,97937.09
2023-03-12T12:11:13.205Z,97938.38
2023-03-12T12:14:47.058Z,97886.72
2023-03-12T12:18:11.231Z,97919.44
2023-03-12T12:21:47.234Z,97917.69
2023-03-12T12:25:27.112Z,97937.69
2023-03-12T12:29:02.506Z,97946.66
2023-03-12T12:32:20.963Z,97927.31
2023-03-12T12:35:40.451Z,97923.22
2023-03-12T12:38:54.376Z,97919.22
2023-03-12T12:42:09.277Z,97924.09
2023-03-12T12:45:18.892Z,97923.72
2023-03-12T12:48:36.799Z,97919.88
2023-03-12T12:51:53.840Z,97928.56
2023-03-12T12:55:14.078Z,97915.81
2023-03-12T12:58:36.887Z,97927.03
2023-03-12T13:01:44.750Z,97914.78
2023-03-12T13:04:53.065Z,97905.41
2023-03-12T13:08:02.390Z,97902.22
2023-03-12T13:11:27.038Z,97914.97
2023-03-12T13:14:44.256Z,97934.84
2023-03-12T13:18:12.362Z,97910.16
2023-03-12T13:21:39.066Z,97917.59
2023-03-12T13:25:01.326Z,97905.94
2023-03-12T13:28:42.541Z,97919.50
2023-03-12T13:31:51.345Z,97905.50
2023-03-12T13:35:01.626Z,97919.19
2023-03-12T13:38:14.879Z,97920.44
2023-03-12T13:41:39.034Z,97931.78
2023-03-12T13:44:44.802Z,97908.78
2023-03-12T13:48:06.379Z,97918.75
2023-03-12T13:51:22.025Z,97903.34
2023-03-12T13:54:36.764Z,97918.13
2023-03-12T13:57:51.029Z,97912.50
2023-03-12T14:01:04.479Z,97918.00
2023-03-12T14:04:21.731Z,97913.25
2023-03-12T14:08:13.975Z,97914.63
2023-03-12T14:11:54.139Z,97920.78
2023-03-12T14:15:27.149Z,97920.31
2023-03-12T14:18:39.346Z,97921.97
2023-03-12T14:21:51.451Z,97918.56
2023-03-12T14:25:04.680Z,97932.88
2023-03-12T14:28:22.526Z,97918.97
2023-03-12T14:31:34.882Z,97935.16
2023-03-12T14:34:49.241Z,97933.47
2023-03-12T14:38:07.184Z,97933.94
2023-03-12T14:41:24.746Z,97933.69
2023-03-12T14:44:34.192Z,97916.28
2023-03-12T14:47:49.803Z,97930.53
2023-03-12T14:50:56.047Z,97940.28
2023-03-12T14:54:06.735Z,97940.75
2023-03-12T14:57:25.179Z,97935.22
2023-03-12T15:00:33.419Z,97934.78
2023-03-12T15:03:50.397Z,97930.41
2023-03-12T15:07:04.753Z,97924.44
2023-03-12T15:10:25.114Z,97922.34
2023-03-12T15:13:32.336Z,97926.81
2023-03-12T15:16:39.785Z,97934.91
2023-03-12T15:19:52.131Z,97935.53
2023-03-12T15:22:59.807Z,97926.81
2023-03-12T15:26:21.945Z,97930.53
2023-03-12T15:29:33.804Z,97930.25
2023-03-12T15:32:40.879Z,97923.25
2023-03-12T15:36:07.788Z,97921.72
2023-03-12T15:39:32.210Z,97914.97
2023-03-12T15:42:46.873Z,97915.69
2023-03-12T15:46:03.963Z,97923.41
2023-03-12T15:49:21.880Z,97929.53
2023-03-12T15:52:36.126Z,97924.56
2023-03-12T15:55:44.796Z,97927.19
2023-03-12T15:59:03.264Z,97935.97
2023-03-12T16:02:15.680Z,97878.31
2023-03-12T16:05:25.111Z,97945.53
2023-03-12T16:08:44.410Z,97937.97
2023-03-12T16:11:52.738Z,97931.22
2023-03-12T16:14:58.949Z,97929.53
2023-03-12T16:18:06.194Z,97923.06
2023-03-12T16:21:13.298Z,97931.78
2023-03-12T16:24:23.167Z,97931.25
2023-03-12T16:27:32.745Z,97934.56
2023-03-12T16:30:40.715Z,97942.66
2023-03-12T16:33:47.515Z,97943.66
2023-03-12T16:36:54.638Z,97936.75
2023-03-12T16:40:04.377Z,97964.91
2023-03-12T16:43:21.099Z,97954.50
2023-03-12T16:46:34.715Z,97953.81
2023-03-12T16:49:41.871Z,97953.94
2023-03-12T16:52:51.367Z,97962.31
2023-03-12T16:56:06.456Z,97957.81
2023-03-12T16:59:28.214Z,97956.47
2023-03-12T17:02:35.699Z,97952.09
2023-03-12T17:05:41.734Z,97912.41
2023-03-12T17:08:50.380Z,97951.09
2023-03-12T17:11:59.859Z,97940.69
2023-03-12T17:15:15.209Z,97937.19
2023-03-12T17:18:22.683Z,97926.75
2023-03-12T17:21:29.947Z,97930.19
2023-03-12T17:24:36.645Z,97932.97
2023-03-12T17:27:52.547Z,97881.16
2023-03-12T17:30:59.298Z,97916.00
2023-03-12T17:34:06.182Z,97926.47
2023-03-12T17:37:12.418Z,97919.59
2023-03-12T17:40:20.608Z,97918.88
2023-03-12T17:43:30.494Z,97926.56
2023-03-12T17:46:40.689Z,97948.16
2023-03-12T17:49:54.118Z,97939.28
2023-03-12T17:53:01.476Z,97924.81
2023-03-12T17:56:07.904Z,97910.31
2023-03-12T17:59:18.564Z,97920.56
2023-03-12T18:02:25.447Z,97908.78
2023-03-12T18:05:32.737Z,97897.50
2023-03-12T18:08:39.512Z,97900.47
2023-03-12T18:11:47.223Z,97900.47
2023-03-12T18:14:56.253Z,97909.28
2023-03-12T18:18:03.620Z,97907.50
2023-03-12T18:21:10.390Z,97918.69
2023-03-12T18:24:17.551Z,97919.47
2023-03-12T18:27:23.758Z,97909.09
2023-03-12T18:30:34.184Z,97921.97
2023-03-12T18:33:41.988Z,97927.63
2023-03-12T18:36:48.856Z,97932.66
2023-03-12T18:39:54.923Z,97943.09
2023-03-12T18:43:03.319Z,97931.69
2023-03-12T18:46:13.343Z,97913.38
2023-03-12T18:49:20.382Z,97891.16
2023-03-12T18:52:26.435Z,97896.19
2023-03-12T18:55:34.457Z,97892.97
2023-03-12T18:58:40.667Z,97905.19
2023-03-12T19:01:50.797Z,97906.94
2023-03-12T19:04:57.266Z,97894.06
2023-03-12T19:08:04.420Z,97898.50
2023-03-12T19:11:15.082Z,97912.41
2023-03-12T19:14:21.961Z,97889.53
2023-03-12T19:17:31.099Z,97907.84
2023-03-12T19:20:38.049Z,97891.31
2023-03-12T19:23:44.244Z,97896.66
2023-03-12T19:26:51.231Z,97903.56
2023-03-12T19:29:57.325Z,97905.22
2023-03-12T19:33:07.510Z,97900.66
2023-03-12T19:36:14.142Z,97903.09
2023-03-12T19:39:21.870Z,97894.66
2023-03-12T19:42:28.323Z,97908.03
2023-03-12T19:45:35.563Z,97899.44
2023-03-12T19:48:44.959Z,97900.97
2023-03-12T19:51:52.263Z,97895.06
2023-03-12T19:55:04.857Z,97894.22
2023-03-12T19:58:12.988Z,97894.31
2023-03-12T20:01:19.391Z,97895.91
2023-03-12T20:04:29.832Z,97876.22
2023-03-12T20:07:36.407Z,97875.06
2023-03-12T20:10:43.531Z,97866.22
2023-03-12T20:13:49.561Z,97868.88
2023-03-12T20:16:56.739Z,97855.84
2023-03-12T20:20:06.754Z,97851.34
2023-03-12T20:23:14.190Z,97844.38
2023-03-12T20:26:20.288Z,97847.66
2023-03-12T20:29:28.137Z,97836.47
2023-03-12T20:32:34.386Z,97832.25
2023-03-12T20:35:44.595Z,97804.88
2023-03-12T20:38:52.985Z,97812.41
2023-03-12T20:41:59.946Z,97816.06
2023-03-12T20:45:06.176Z,97811.03
2023-03-12T20:48:14.757Z,97817.63
2023-03-12T20:51:23.406Z,97810.41
2023-03-12T20:54:30.619Z,97813.13
2023-03-12T20:57:37.692Z,97797.78
2023-03-12T21:00:44.671Z,97808.72
2023-03-12T21:03:50.830Z,97818.09
2023-03-12T21:07:00.353Z,97802.38
2023-03-12T21:10:06.457Z,97803.72
2023-03-12T21:13:13.325Z,97797.72
2023-03-12T21:16:19.227Z,97790.78
2023-03-12T21:19:27.258Z,97803.59
2023-03-12T21:22:36.236Z,97814.00
2023-03-12T21:25:44.916Z,97810.41
2023-03-12T21:28:50.875Z,97802.91
2023-03-12T21:31:57.871Z,97795.84
2023-03-12T21:35:03.920Z,97795.56
2023-03-12T21:38:13.533Z,97797.06
2023-03-12T21:41:22.489Z,97800.28
2023-03-12T21:44:29.125Z,97797.91
2023-03-12T21:47:34.888Z,97806.19
2023-03-12T21:50:41.467Z,97793.06
2023-03-12T21:53:49.995Z,97792.38
2023-03-12T21:56:56.681Z,97799.22
2023-03-12T22:00:02.542Z,97799.88
2023-03-12T22:03:10.919Z,97781.03
2023-03-12T22:06:19.763Z,97791.06
2023-03-12T22:09:30.036Z,97791.06
2023-03-12T22:12:35.896Z,97792.91
2023-03-12T22:15:42.486Z,97789.41
2023-03-12T22:18:50.244Z,97780.63
2023-03-12T22:21:56.939Z,97773.91
2023-03-12T22:25:05.909Z,97777.44
2023-03-12T22:28:12.498Z,97770.56
2023-03-12T22:31:18.314Z,97769.09
2023-03-12T22:34:25.186Z,97788.16
2023-03-12T22:37:31.140Z,97782.03
2023-03-12T22:40:40.864Z,97774.22
2023-03-12T22:43:47.879Z,97754.38
2023-03-12T22:46:55.155Z,97755.22
2023-03-12T22:50:00.876Z,97765.78
2023-03-12T22:53:07.389Z,97774.53
2023-03-12T22:56:17.922Z,97768.56
2023-03-12T22:59:24.637Z,97766.28
2023-03-12T23:02:30.696Z,97759.38
2023-03-12T23:05:38.254Z,97757.53
2023-03-12T23:08:47.512Z,97745.25
2023-03-12T23:11:57.215Z,97753.53
2023-03-12T23:15:03.037Z,97757.53
2023-03-12T23:18:09.578Z,97758.28
2023-03-12T23:21:19.259Z,97762.72
2023-03-12T23:24:25.782Z,97757.78
2023-03-12T23:27:34.767Z,97757.31
2023-03-12T23:30:41.342Z,97746.88
2023-03-12T23:33:48.425Z,97750.56
2023-03-12T23:36:55.029Z,97762.19
2023-03-12T23:40:00.641Z,97762.53
2023-03-12T23:43:10.266Z,97779.47
2023-03-12T23:46:18.491Z,97769.59
2023-03-12T23:49:25.701Z,97758.91
2023-03-12T23:52:31.380Z,97757.16
2023-03-12T23:55:37.972Z,97756.66
2023-03-12T23:58:47.963Z,97759.84
